sensor_id;sensor_type;location;lat;lon;timestamp;P1;durP1;ratioP1;P2;durP2;ratioP2
73515;SDS011;61763;51.416;5.442;2023-05-23T00:02:11;34.75;;;16.58;;
73515;SDS011;61763;51.416;5.442;2023-05-23T00:04:37;35.65;;;15.25;;
73515;SDS011;61763;51.416;5.442;2023-05-23T00:07:03;32.10;;;14.77;;
73515;SDS011;61763;51.416;5.442;2023-05-23T00:09:29;32.10;;;15.63;;
73515;SDS011;61763;51.416;5.442;2023-05-23T00:11:54;27.70;;;13.23;;
73515;SDS011;61763;51.416;5.442;2023-05-23T00:14:20;29.67;;;14.32;;
73515;SDS011;61763;51.416;5.442;2023-05-23T00:16:45;33.17;;;15.30;;
73515;SDS011;61763;51.416;5.442;2023-05-23T00:19:14;30.00;;;14.65;;
73515;SDS011;61763;51.416;5.442;2023-05-23T00:21:44;31.63;;;15.07;;
73515;SDS011;61763;51.416;5.442;2023-05-23T00:24:14;29.02;;;13.23;;
73515;SDS011;61763;51.416;5.442;2023-05-23T00:26:42;28.88;;;12.98;;
73515;SDS011;61763;51.416;5.442;2023-05-23T00:29:10;28.27;;;13.05;;
73515;SDS011;61763;51.416;5.442;2023-05-23T00:31:43;27.30;;;12.93;;
73515;SDS011;61763;51.416;5.442;2023-05-23T00:34:13;24.55;;;11.93;;
73515;SDS011;61763;51.416;5.442;2023-05-23T00:36:41;29.38;;;13.13;;
73515;SDS011;61763;51.416;5.442;2023-05-23T00:39:07;25.13;;;11.30;;
73515;SDS011;61763;51.416;5.442;2023-05-23T00:41:33;19.65;;;10.20;;
73515;SDS011;61763;51.416;5.442;2023-05-23T00:44:00;21.15;;;10.05;;
73515;SDS011;61763;51.416;5.442;2023-05-23T00:46:25;19.38;;;10.13;;
73515;SDS011;61763;51.416;5.442;2023-05-23T00:48:52;20.70;;;11.27;;
73515;SDS011;61763;51.416;5.442;2023-05-23T00:51:19;20.65;;;10.88;;
73515;SDS011;61763;51.416;5.442;2023-05-23T00:53:45;20.52;;;10.40;;
73515;SDS011;61763;51.416;5.442;2023-05-23T00:56:11;20.95;;;9.98;;
73515;SDS011;61763;51.416;5.442;2023-05-23T00:58:37;19.65;;;9.45;;
73515;SDS011;61763;51.416;5.442;2023-05-23T01:01:03;18.52;;;10.40;;
73515;SDS011;61763;51.416;5.442;2023-05-23T01:03:29;17.58;;;9.82;;
73515;SDS011;61763;51.416;5.442;2023-05-23T01:05:55;17.90;;;9.80;;
73515;SDS011;61763;51.416;5.442;2023-05-23T01:08:21;19.45;;;9.35;;
73515;SDS011;61763;51.416;5.442;2023-05-23T01:10:46;17.70;;;9.95;;
73515;SDS011;61763;51.416;5.442;2023-05-23T01:21:14;15.02;;;8.80;;
73515;SDS011;61763;51.416;5.442;2023-05-23T01:27:00;17.05;;;8.65;;
73515;SDS011;61763;51.416;5.442;2023-05-23T01:29:50;18.75;;;9.85;;
73515;SDS011;61763;51.416;5.442;2023-05-23T01:32:20;18.75;;;9.55;;
73515;SDS011;61763;51.416;5.442;2023-05-23T01:34:47;19.63;;;8.98;;
73515;SDS011;61763;51.416;5.442;2023-05-23T01:37:13;22.58;;;10.25;;
73515;SDS011;61763;51.416;5.442;2023-05-23T01:39:42;17.02;;;10.10;;
73515;SDS011;61763;51.416;5.442;2023-05-23T01:42:07;19.38;;;9.57;;
73515;SDS011;61763;51.416;5.442;2023-05-23T01:44:33;18.92;;;8.90;;
73515;SDS011;61763;51.416;5.442;2023-05-23T01:47:01;18.58;;;8.70;;
73515;SDS011;61763;51.416;5.442;2023-05-23T01:49:29;18.60;;;8.73;;
73515;SDS011;61763;51.416;5.442;2023-05-23T01:51:55;16.30;;;8.18;;
73515;SDS011;61763;51.416;5.442;2023-05-23T01:54:21;21.08;;;8.77;;
73515;SDS011;61763;51.416;5.442;2023-05-23T01:56:47;19.65;;;8.25;;
73515;SDS011;61763;51.416;5.442;2023-05-23T01:59:14;20.35;;;8.82;;
73515;SDS011;61763;51.416;5.442;2023-05-23T02:01:40;17.98;;;8.68;;
73515;SDS011;61763;51.416;5.442;2023-05-23T02:04:05;18.35;;;9.15;;
73515;SDS011;61763;51.416;5.442;2023-05-23T02:06:31;18.15;;;8.85;;
73515;SDS011;61763;51.416;5.442;2023-05-23T02:08:56;19.13;;;9.23;;
73515;SDS011;61763;51.416;5.442;2023-05-23T02:11:22;21.50;;;9.32;;
73515;SDS011;61763;51.416;5.442;2023-05-23T02:13:48;26.40;;;10.15;;
73515;SDS011;61763;51.416;5.442;2023-05-23T02:16:14;24.48;;;11.07;;
73515;SDS011;61763;51.416;5.442;2023-05-23T02:18:39;22.20;;;10.98;;
73515;SDS011;61763;51.416;5.442;2023-05-23T02:21:05;27.25;;;10.82;;
73515;SDS011;61763;51.416;5.442;2023-05-23T02:23:30;23.65;;;10.20;;
73515;SDS011;61763;51.416;5.442;2023-05-23T02:25:55;27.05;;;11.02;;
73515;SDS011;61763;51.416;5.442;2023-05-23T02:28:21;24.45;;;10.82;;
73515;SDS011;61763;51.416;5.442;2023-05-23T02:30:46;20.30;;;10.27;;
73515;SDS011;61763;51.416;5.442;2023-05-23T02:33:11;23.40;;;10.55;;
73515;SDS011;61763;51.416;5.442;2023-05-23T02:35:37;18.63;;;9.65;;
73515;SDS011;61763;51.416;5.442;2023-05-23T02:38:03;22.05;;;10.05;;
73515;SDS011;61763;51.416;5.442;2023-05-23T02:40:28;24.42;;;10.00;;
73515;SDS011;61763;51.416;5.442;2023-05-23T02:42:53;24.52;;;9.98;;
73515;SDS011;61763;51.416;5.442;2023-05-23T02:47:46;23.83;;;9.27;;
73515;SDS011;61763;51.416;5.442;2023-05-23T02:50:12;21.27;;;10.18;;
73515;SDS011;61763;51.416;5.442;2023-05-23T02:52:37;23.85;;;9.63;;
73515;SDS011;61763;51.416;5.442;2023-05-23T02:55:02;27.75;;;10.10;;
73515;SDS011;61763;51.416;5.442;2023-05-23T02:57:28;21.45;;;9.13;;
73515;SDS011;61763;51.416;5.442;2023-05-23T02:59:55;20.77;;;9.80;;
73515;SDS011;61763;51.416;5.442;2023-05-23T03:02:20;23.85;;;9.50;;
73515;SDS011;61763;51.416;5.442;2023-05-23T03:04:46;17.30;;;8.90;;
73515;SDS011;61763;51.416;5.442;2023-05-23T03:07:12;24.92;;;10.20;;
73515;SDS011;61763;51.416;5.442;2023-05-23T03:09:39;22.52;;;8.88;;
73515;SDS011;61763;51.416;5.442;2023-05-23T03:12:05;22.15;;;9.30;;
73515;SDS011;61763;51.416;5.442;2023-05-23T03:17:40;18.02;;;7.35;;
73515;SDS011;61763;51.416;5.442;2023-05-23T03:20:05;15.02;;;6.65;;
73515;SDS011;61763;51.416;5.442;2023-05-23T03:22:33;12.80;;;5.80;;
73515;SDS011;61763;51.416;5.442;2023-05-23T03:24:59;15.65;;;6.07;;
73515;SDS011;61763;51.416;5.442;2023-05-23T03:27:25;10.13;;;4.97;;
73515;SDS011;61763;51.416;5.442;2023-05-23T03:29:50;10.43;;;5.38;;
73515;SDS011;61763;51.416;5.442;2023-05-23T03:32:16;9.85;;;4.50;;
73515;SDS011;61763;51.416;5.442;2023-05-23T03:34:41;9.50;;;5.10;;
73515;SDS011;61763;51.416;5.442;2023-05-23T03:37:06;10.15;;;4.53;;
73515;SDS011;61763;51.416;5.442;2023-05-23T03:39:32;9.13;;;4.55;;
73515;SDS011;61763;51.416;5.442;2023-05-23T03:41:58;10.15;;;3.95;;
73515;SDS011;61763;51.416;5.442;2023-05-23T03:44:24;8.82;;;4.00;;
73515;SDS011;61763;51.416;5.442;2023-05-23T03:46:50;10.48;;;4.13;;
73515;SDS011;61763;51.416;5.442;2023-05-23T03:49:15;11.02;;;4.45;;
73515;SDS011;61763;51.416;5.442;2023-05-23T03:51:40;8.60;;;3.85;;
73515;SDS011;61763;51.416;5.442;2023-05-23T03:54:06;9.65;;;4.88;;
73515;SDS011;61763;51.416;5.442;2023-05-23T03:56:31;12.40;;;4.38;;
73515;SDS011;61763;51.416;5.442;2023-05-23T03:58:56;10.67;;;4.07;;
73515;SDS011;61763;51.416;5.442;2023-05-23T04:01:22;10.27;;;4.63;;
73515;SDS011;61763;51.416;5.442;2023-05-23T04:03:47;9.57;;;4.28;;
73515;SDS011;61763;51.416;5.442;2023-05-23T04:06:13;7.78;;;3.88;;
73515;SDS011;61763;51.416;5.442;2023-05-23T04:08:38;10.25;;;4.28;;
73515;SDS011;61763;51.416;5.442;2023-05-23T04:11:06;10.15;;;5.15;;
73515;SDS011;61763;51.416;5.442;2023-05-23T04:13:31;11.65;;;5.43;;
73515;SDS011;61763;51.416;5.442;2023-05-23T04:15:58;10.50;;;4.72;;
73515;SDS011;61763;51.416;5.442;2023-05-23T04:18:26;12.32;;;5.40;;
73515;SDS011;61763;51.416;5.442;2023-05-23T04:20:52;11.02;;;5.32;;
73515;SDS011;61763;51.416;5.442;2023-05-23T04:23:18;11.30;;;5.30;;
73515;SDS011;61763;51.416;5.442;2023-05-23T04:25:43;11.55;;;5.43;;
73515;SDS011;61763;51.416;5.442;2023-05-23T04:28:09;13.55;;;5.35;;
73515;SDS011;61763;51.416;5.442;2023-05-23T04:30:35;10.40;;;4.45;;
73515;SDS011;61763;51.416;5.442;2023-05-23T04:33:01;10.35;;;5.05;;
73515;SDS011;61763;51.416;5.442;2023-05-23T04:35:26;12.32;;;4.80;;
73515;SDS011;61763;51.416;5.442;2023-05-23T04:37:58;8.38;;;4.45;;
73515;SDS011;61763;51.416;5.442;2023-05-23T04:40:23;14.15;;;4.68;;
73515;SDS011;61763;51.416;5.442;2023-05-23T04:42:49;7.65;;;3.95;;
73515;SDS011;61763;51.416;5.442;2023-05-23T04:45:19;12.98;;;5.50;;
73515;SDS011;61763;51.416;5.442;2023-05-23T04:47:45;9.93;;;5.35;;
73515;SDS011;61763;51.416;5.442;2023-05-23T04:50:11;12.95;;;4.75;;
73515;SDS011;61763;51.416;5.442;2023-05-23T04:52:39;13.13;;;5.03;;
73515;SDS011;61763;51.416;5.442;2023-05-23T04:55:05;17.88;;;5.63;;
73515;SDS011;61763;51.416;5.442;2023-05-23T04:57:32;12.00;;;5.45;;
73515;SDS011;61763;51.416;5.442;2023-05-23T05:00:01;14.07;;;5.55;;
73515;SDS011;61763;51.416;5.442;2023-05-23T05:02:31;12.50;;;5.07;;
73515;SDS011;61763;51.416;5.442;2023-05-23T05:04:59;19.90;;;5.63;;
73515;SDS011;61763;51.416;5.442;2023-05-23T05:07:24;15.85;;;5.68;;
73515;SDS011;61763;51.416;5.442;2023-05-23T05:09:50;17.20;;;5.38;;
73515;SDS011;61763;51.416;5.442;2023-05-23T05:12:15;17.73;;;5.68;;
73515;SDS011;61763;51.416;5.442;2023-05-23T05:14:40;15.93;;;5.40;;
73515;SDS011;61763;51.416;5.442;2023-05-23T05:17:06;17.00;;;5.80;;
73515;SDS011;61763;51.416;5.442;2023-05-23T05:19:31;16.60;;;6.32;;
73515;SDS011;61763;51.416;5.442;2023-05-23T05:21:58;20.50;;;6.72;;
73515;SDS011;61763;51.416;5.442;2023-05-23T05:24:24;13.60;;;5.32;;
73515;SDS011;61763;51.416;5.442;2023-05-23T05:26:49;20.88;;;5.95;;
73515;SDS011;61763;51.416;5.442;2023-05-23T05:29:16;19.77;;;6.40;;
73515;SDS011;61763;51.416;5.442;2023-05-23T05:31:41;20.73;;;6.65;;
73515;SDS011;61763;51.416;5.442;2023-05-23T05:34:09;14.88;;;5.18;;
73515;SDS011;61763;51.416;5.442;2023-05-23T05:36:34;21.63;;;6.25;;
73515;SDS011;61763;51.416;5.442;2023-05-23T05:39:00;20.67;;;6.93;;
73515;SDS011;61763;51.416;5.442;2023-05-23T05:41:26;25.40;;;7.13;;
73515;SDS011;61763;51.416;5.442;2023-05-23T05:43:51;23.65;;;7.72;;
73515;SDS011;61763;51.416;5.442;2023-05-23T05:46:16;16.15;;;5.80;;
73515;SDS011;61763;51.416;5.442;2023-05-23T05:48:42;18.40;;;6.75;;
73515;SDS011;61763;51.416;5.442;2023-05-23T05:51:09;21.13;;;6.53;;
73515;SDS011;61763;51.416;5.442;2023-05-23T05:53:34;17.73;;;6.53;;
73515;SDS011;61763;51.416;5.442;2023-05-23T05:55:59;23.35;;;6.03;;
73515;SDS011;61763;51.416;5.442;2023-05-23T05:58:25;23.08;;;6.75;;
73515;SDS011;61763;51.416;5.442;2023-05-23T06:00:50;19.67;;;5.68;;
73515;SDS011;61763;51.416;5.442;2023-05-23T06:03:15;21.95;;;6.15;;
73515;SDS011;61763;51.416;5.442;2023-05-23T06:05:41;18.65;;;5.65;;
73515;SDS011;61763;51.416;5.442;2023-05-23T06:08:07;19.40;;;5.38;;
73515;SDS011;61763;51.416;5.442;2023-05-23T06:10:33;17.77;;;5.00;;
73515;SDS011;61763;51.416;5.442;2023-05-23T06:13:02;19.92;;;6.20;;
73515;SDS011;61763;51.416;5.442;2023-05-23T06:15:28;19.95;;;5.22;;
73515;SDS011;61763;51.416;5.442;2023-05-23T06:17:53;19.65;;;4.97;;
73515;SDS011;61763;51.416;5.442;2023-05-23T06:20:18;19.77;;;5.55;;
73515;SDS011;61763;51.416;5.442;2023-05-23T06:22:44;17.25;;;5.25;;
73515;SDS011;61763;51.416;5.442;2023-05-23T06:25:10;18.50;;;5.18;;
73515;SDS011;61763;51.416;5.442;2023-05-23T06:27:36;12.45;;;4.90;;
73515;SDS011;61763;51.416;5.442;2023-05-23T06:30:02;13.60;;;4.32;;
73515;SDS011;61763;51.416;5.442;2023-05-23T06:32:31;13.27;;;5.10;;
73515;SDS011;61763;51.416;5.442;2023-05-23T06:34:56;14.38;;;4.90;;
73515;SDS011;61763;51.416;5.442;2023-05-23T06:37:22;12.20;;;4.63;;
73515;SDS011;61763;51.416;5.442;2023-05-23T06:39:47;13.10;;;3.80;;
73515;SDS011;61763;51.416;5.442;2023-05-23T06:42:13;9.60;;;3.05;;
73515;SDS011;61763;51.416;5.442;2023-05-23T06:44:39;9.98;;;3.75;;
73515;SDS011;61763;51.416;5.442;2023-05-23T06:47:04;10.45;;;3.60;;
73515;SDS011;61763;51.416;5.442;2023-05-23T06:49:30;12.43;;;3.65;;
73515;SDS011;61763;51.416;5.442;2023-05-23T06:51:55;8.00;;;3.25;;
73515;SDS011;61763;51.416;5.442;2023-05-23T06:54:20;7.53;;;3.28;;
73515;SDS011;61763;51.416;5.442;2023-05-23T06:56:46;10.15;;;3.03;;
73515;SDS011;61763;51.416;5.442;2023-05-23T06:59:11;11.18;;;3.22;;
73515;SDS011;61763;51.416;5.442;2023-05-23T07:01:36;13.63;;;3.00;;
73515;SDS011;61763;51.416;5.442;2023-05-23T07:04:02;12.07;;;3.75;;
73515;SDS011;61763;51.416;5.442;2023-05-23T07:06:27;10.13;;;3.17;;
73515;SDS011;61763;51.416;5.442;2023-05-23T07:08:53;11.40;;;3.38;;
73515;SDS011;61763;51.416;5.442;2023-05-23T07:11:21;12.88;;;3.47;;
73515;SDS011;61763;51.416;5.442;2023-05-23T07:13:47;8.18;;;3.13;;
73515;SDS011;61763;51.416;5.442;2023-05-23T07:16:12;8.18;;;3.50;;
73515;SDS011;61763;51.416;5.442;2023-05-23T07:18:38;10.75;;;2.42;;
73515;SDS011;61763;51.416;5.442;2023-05-23T07:21:04;10.98;;;3.05;;
73515;SDS011;61763;51.416;5.442;2023-05-23T07:23:32;8.68;;;2.95;;
73515;SDS011;61763;51.416;5.442;2023-05-23T07:25:58;8.23;;;3.33;;
73515;SDS011;61763;51.416;5.442;2023-05-23T07:28:24;13.30;;;3.08;;
73515;SDS011;61763;51.416;5.442;2023-05-23T07:30:51;8.43;;;2.20;;
73515;SDS011;61763;51.416;5.442;2023-05-23T07:33:16;8.40;;;3.38;;
73515;SDS011;61763;51.416;5.442;2023-05-23T07:35:42;7.60;;;2.67;;
73515;SDS011;61763;51.416;5.442;2023-05-23T07:38:08;9.55;;;2.47;;
73515;SDS011;61763;51.416;5.442;2023-05-23T07:40:34;9.60;;;2.72;;
73515;SDS011;61763;51.416;5.442;2023-05-23T07:43:00;5.38;;;2.63;;
73515;SDS011;61763;51.416;5.442;2023-05-23T07:45:26;9.57;;;2.45;;
73515;SDS011;61763;51.416;5.442;2023-05-23T07:47:51;7.97;;;2.28;;
73515;SDS011;61763;51.416;5.442;2023-05-23T07:50:16;8.00;;;2.55;;
73515;SDS011;61763;51.416;5.442;2023-05-23T07:52:42;9.77;;;2.45;;
73515;SDS011;61763;51.416;5.442;2023-05-23T07:55:08;9.00;;;2.63;;
73515;SDS011;61763;51.416;5.442;2023-05-23T07:57:34;9.05;;;2.38;;
73515;SDS011;61763;51.416;5.442;2023-05-23T07:59:59;9.80;;;2.42;;
73515;SDS011;61763;51.416;5.442;2023-05-23T08:02:24;12.77;;;3.30;;
73515;SDS011;61763;51.416;5.442;2023-05-23T08:04:50;8.98;;;2.58;;
73515;SDS011;61763;51.416;5.442;2023-05-23T08:07:17;9.00;;;2.70;;
73515;SDS011;61763;51.416;5.442;2023-05-23T08:09:42;8.73;;;2.33;;
73515;SDS011;61763;51.416;5.442;2023-05-23T08:12:08;8.45;;;3.25;;
73515;SDS011;61763;51.416;5.442;2023-05-23T08:14:35;8.90;;;2.60;;
73515;SDS011;61763;51.416;5.442;2023-05-23T08:17:01;11.68;;;3.38;;
73515;SDS011;61763;51.416;5.442;2023-05-23T08:19:26;11.15;;;3.47;;
73515;SDS011;61763;51.416;5.442;2023-05-23T08:21:52;7.95;;;2.40;;
73515;SDS011;61763;51.416;5.442;2023-05-23T08:24:20;6.40;;;2.10;;
73515;SDS011;61763;51.416;5.442;2023-05-23T08:26:46;9.70;;;1.67;;
73515;SDS011;61763;51.416;5.442;2023-05-23T08:29:12;7.63;;;2.22;;
73515;SDS011;61763;51.416;5.442;2023-05-23T08:31:38;8.38;;;2.00;;
73515;SDS011;61763;51.416;5.442;2023-05-23T08:34:03;10.88;;;2.63;;
73515;SDS011;61763;51.416;5.442;2023-05-23T08:36:28;8.90;;;2.00;;
73515;SDS011;61763;51.416;5.442;2023-05-23T08:38:55;8.55;;;2.50;;
73515;SDS011;61763;51.416;5.442;2023-05-23T08:41:22;10.15;;;2.13;;
73515;SDS011;61763;51.416;5.442;2023-05-23T08:43:48;10.50;;;2.30;;
73515;SDS011;61763;51.416;5.442;2023-05-23T08:46:14;10.50;;;2.88;;
73515;SDS011;61763;51.416;5.442;2023-05-23T08:48:41;10.05;;;1.95;;
73515;SDS011;61763;51.416;5.442;2023-05-23T08:51:08;9.90;;;2.72;;
73515;SDS011;61763;51.416;5.442;2023-05-23T08:53:37;5.20;;;1.73;;
73515;SDS011;61763;51.416;5.442;2023-05-23T08:56:05;9.15;;;2.03;;
73515;SDS011;61763;51.416;5.442;2023-05-23T08:58:31;5.57;;;1.35;;
73515;SDS011;61763;51.416;5.442;2023-05-23T09:00:59;10.38;;;2.13;;
73515;SDS011;61763;51.416;5.442;2023-05-23T09:03:25;9.23;;;1.70;;
73515;SDS011;61763;51.416;5.442;2023-05-23T09:05:52;7.13;;;1.60;;
73515;SDS011;61763;51.416;5.442;2023-05-23T09:08:18;5.13;;;1.45;;
73515;SDS011;61763;51.416;5.442;2023-05-23T09:10:44;8.13;;;1.88;;
73515;SDS011;61763;51.416;5.442;2023-05-23T09:13:09;8.40;;;2.05;;
73515;SDS011;61763;51.416;5.442;2023-05-23T09:15:35;6.90;;;2.20;;
73515;SDS011;61763;51.416;5.442;2023-05-23T09:18:00;8.65;;;1.92;;
73515;SDS011;61763;51.416;5.442;2023-05-23T09:20:26;7.70;;;2.25;;
73515;SDS011;61763;51.416;5.442;2023-05-23T09:22:53;6.45;;;1.27;;
73515;SDS011;61763;51.416;5.442;2023-05-23T09:25:19;8.48;;;1.95;;
73515;SDS011;61763;51.416;5.442;2023-05-23T09:27:45;7.55;;;1.48;;
73515;SDS011;61763;51.416;5.442;2023-05-23T09:30:11;7.13;;;1.48;;
73515;SDS011;61763;51.416;5.442;2023-05-23T09:32:37;8.73;;;1.80;;
73515;SDS011;61763;51.416;5.442;2023-05-23T09:35:04;4.72;;;1.33;;
73515;SDS011;61763;51.416;5.442;2023-05-23T09:37:35;5.30;;;1.63;;
73515;SDS011;61763;51.416;5.442;2023-05-23T09:40:08;8.88;;;1.48;;
73515;SDS011;61763;51.416;5.442;2023-05-23T09:42:34;8.32;;;1.88;;
73515;SDS011;61763;51.416;5.442;2023-05-23T09:45:00;6.40;;;2.20;;
73515;SDS011;61763;51.416;5.442;2023-05-23T09:47:27;5.43;;;1.38;;
73515;SDS011;61763;51.416;5.442;2023-05-23T09:49:52;8.25;;;1.58;;
73515;SDS011;61763;51.416;5.442;2023-05-23T09:52:18;6.13;;;1.35;;
73515;SDS011;61763;51.416;5.442;2023-05-23T09:54:46;7.45;;;1.23;;
73515;SDS011;61763;51.416;5.442;2023-05-23T09:57:12;8.45;;;1.50;;
73515;SDS011;61763;51.416;5.442;2023-05-23T09:59:41;9.07;;;1.23;;
73515;SDS011;61763;51.416;5.442;2023-05-23T10:02:10;8.43;;;1.10;;
73515;SDS011;61763;51.416;5.442;2023-05-23T10:04:40;9.32;;;1.90;;
73515;SDS011;61763;51.416;5.442;2023-05-23T10:07:13;8.80;;;1.00;;
73515;SDS011;61763;51.416;5.442;2023-05-23T10:09:52;11.48;;;1.20;;
73515;SDS011;61763;51.416;5.442;2023-05-23T10:12:40;7.47;;;0.95;;
73515;SDS011;61763;51.416;5.442;2023-05-23T10:15:07;7.32;;;1.20;;
73515;SDS011;61763;51.416;5.442;2023-05-23T10:17:51;4.70;;;0.60;;
73515;SDS011;61763;51.416;5.442;2023-05-23T10:20:27;12.13;;;1.33;;
73515;SDS011;61763;51.416;5.442;2023-05-23T10:22:56;12.48;;;1.33;;
73515;SDS011;61763;51.416;5.442;2023-05-23T10:25:23;5.43;;;1.13;;
73515;SDS011;61763;51.416;5.442;2023-05-23T10:27:53;7.80;;;1.25;;
73515;SDS011;61763;51.416;5.442;2023-05-23T10:30:22;11.25;;;1.00;;
73515;SDS011;61763;51.416;5.442;2023-05-23T10:32:49;6.05;;;1.00;;
73515;SDS011;61763;51.416;5.442;2023-05-23T10:40:59;6.35;;;0.95;;
73515;SDS011;61763;51.416;5.442;2023-05-23T10:43:35;6.25;;;1.40;;
73515;SDS011;61763;51.416;5.442;2023-05-23T10:46:04;6.32;;;1.00;;
73515;SDS011;61763;51.416;5.442;2023-05-23T10:48:33;5.93;;;1.48;;
73515;SDS011;61763;51.416;5.442;2023-05-23T10:51:00;7.57;;;1.05;;
73515;SDS011;61763;51.416;5.442;2023-05-23T10:53:39;6.57;;;1.35;;
73515;SDS011;61763;51.416;5.442;2023-05-23T10:56:07;9.18;;;1.80;;
73515;SDS011;61763;51.416;5.442;2023-05-23T10:58:34;11.18;;;1.27;;
73515;SDS011;61763;51.416;5.442;2023-05-23T11:01:05;6.43;;;1.00;;
73515;SDS011;61763;51.416;5.442;2023-05-23T11:03:36;10.80;;;1.85;;
73515;SDS011;61763;51.416;5.442;2023-05-23T11:09:27;6.00;;;1.00;;
73515;SDS011;61763;51.416;5.442;2023-05-23T11:14:14;5.60;;;1.38;;
73515;SDS011;61763;51.416;5.442;2023-05-23T11:16:40;3.80;;;0.80;;
73515;SDS011;61763;51.416;5.442;2023-05-23T11:21:51;5.85;;;0.98;;
73515;SDS011;61763;51.416;5.442;2023-05-23T11:24:46;8.93;;;1.38;;
73515;SDS011;61763;51.416;5.442;2023-05-23T11:27:33;5.60;;;1.05;;
73515;SDS011;61763;51.416;5.442;2023-05-23T11:32:26;14.93;;;1.37;;
73515;SDS011;61763;51.416;5.442;2023-05-23T11:34:54;6.70;;;1.55;;
73515;SDS011;61763;51.416;5.442;2023-05-23T11:37:19;6.75;;;1.15;;
73515;SDS011;61763;51.416;5.442;2023-05-23T11:39:45;7.40;;;0.93;;
73515;SDS011;61763;51.416;5.442;2023-05-23T11:42:10;8.38;;;1.55;;
73515;SDS011;61763;51.416;5.442;2023-05-23T11:44:36;7.22;;;1.00;;
73515;SDS011;61763;51.416;5.442;2023-05-23T11:47:01;6.00;;;0.80;;
73515;SDS011;61763;51.416;5.442;2023-05-23T11:49:29;7.30;;;0.90;;
73515;SDS011;61763;51.416;5.442;2023-05-23T11:51:55;5.57;;;0.88;;
73515;SDS011;61763;51.416;5.442;2023-05-23T11:54:25;6.50;;;1.73;;
73515;SDS011;61763;51.416;5.442;2023-05-23T11:56:51;6.15;;;1.58;;
73515;SDS011;61763;51.416;5.442;2023-05-23T11:59:17;7.40;;;1.30;;
73515;SDS011;61763;51.416;5.442;2023-05-23T12:01:42;7.03;;;1.00;;
73515;SDS011;61763;51.416;5.442;2023-05-23T12:04:08;9.43;;;1.27;;
73515;SDS011;61763;51.416;5.442;2023-05-23T12:06:37;12.07;;;1.65;;
73515;SDS011;61763;51.416;5.442;2023-05-23T12:09:04;5.10;;;1.50;;
73515;SDS011;61763;51.416;5.442;2023-05-23T12:11:30;7.82;;;1.63;;
73515;SDS011;61763;51.416;5.442;2023-05-23T12:13:56;8.27;;;1.20;;
73515;SDS011;61763;51.416;5.442;2023-05-23T12:16:21;6.13;;;1.10;;
73515;SDS011;61763;51.416;5.442;2023-05-23T12:18:47;6.10;;;1.25;;
73515;SDS011;61763;51.416;5.442;2023-05-23T12:21:12;7.60;;;1.48;;
73515;SDS011;61763;51.416;5.442;2023-05-23T12:23:38;6.38;;;0.90;;
73515;SDS011;61763;51.416;5.442;2023-05-23T12:26:04;5.57;;;1.05;;
73515;SDS011;61763;51.416;5.442;2023-05-23T12:28:37;8.57;;;0.73;;
73515;SDS011;61763;51.416;5.442;2023-05-23T12:31:37;7.07;;;0.90;;
73515;SDS011;61763;51.416;5.442;2023-05-23T12:33:57;11.00;;;1.85;;
73515;SDS011;61763;51.416;5.442;2023-05-23T12:36:23;7.15;;;1.38;;
73515;SDS011;61763;51.416;5.442;2023-05-23T12:38:50;5.18;;;1.00;;
73515;SDS011;61763;51.416;5.442;2023-05-23T12:41:18;5.68;;;1.55;;
73515;SDS011;61763;51.416;5.442;2023-05-23T12:46:16;7.88;;;1.02;;
73515;SDS011;61763;51.416;5.442;2023-05-23T12:48:42;6.43;;;0.98;;
73515;SDS011;61763;51.416;5.442;2023-05-23T12:51:08;6.63;;;1.23;;
73515;SDS011;61763;51.416;5.442;2023-05-23T12:53:35;10.80;;;1.45;;
73515;SDS011;61763;51.416;5.442;2023-05-23T12:56:01;6.85;;;0.98;;
73515;SDS011;61763;51.416;5.442;2023-05-23T12:58:26;8.98;;;1.02;;
73515;SDS011;61763;51.416;5.442;2023-05-23T13:00:52;7.07;;;0.98;;
73515;SDS011;61763;51.416;5.442;2023-05-23T13:03:17;8.23;;;1.33;;
73515;SDS011;61763;51.416;5.442;2023-05-23T13:05:43;8.43;;;0.98;;
73515;SDS011;61763;51.416;5.442;2023-05-23T13:08:08;6.88;;;0.93;;
73515;SDS011;61763;51.416;5.442;2023-05-23T13:10:33;4.88;;;0.85;;
73515;SDS011;61763;51.416;5.442;2023-05-23T13:12:59;4.55;;;0.90;;
73515;SDS011;61763;51.416;5.442;2023-05-23T13:15:24;4.63;;;0.75;;
73515;SDS011;61763;51.416;5.442;2023-05-23T13:17:50;4.70;;;1.05;;
73515;SDS011;61763;51.416;5.442;2023-05-23T13:20:16;6.55;;;0.95;;
73515;SDS011;61763;51.416;5.442;2023-05-23T13:22:41;4.90;;;1.23;;
73515;SDS011;61763;51.416;5.442;2023-05-23T13:25:07;5.60;;;0.80;;
73515;SDS011;61763;51.416;5.442;2023-05-23T13:27:33;6.57;;;1.02;;
73515;SDS011;61763;51.416;5.442;2023-05-23T13:29:58;7.72;;;1.52;;
73515;SDS011;61763;51.416;5.442;2023-05-23T13:32:24;6.50;;;1.00;;
73515;SDS011;61763;51.416;5.442;2023-05-23T13:34:50;8.07;;;1.02;;
73515;SDS011;61763;51.416;5.442;2023-05-23T13:37:16;5.50;;;1.20;;
73515;SDS011;61763;51.416;5.442;2023-05-23T13:39:41;7.20;;;1.33;;
73515;SDS011;61763;51.416;5.442;2023-05-23T13:42:07;6.50;;;0.95;;
73515;SDS011;61763;51.416;5.442;2023-05-23T13:44:32;8.52;;;0.90;;
73515;SDS011;61763;51.416;5.442;2023-05-23T13:47:05;5.85;;;1.15;;
73515;SDS011;61763;51.416;5.442;2023-05-23T13:49:34;4.60;;;0.85;;
73515;SDS011;61763;51.416;5.442;2023-05-23T13:51:59;7.00;;;0.93;;
73515;SDS011;61763;51.416;5.442;2023-05-23T13:54:24;6.85;;;0.95;;
73515;SDS011;61763;51.416;5.442;2023-05-23T13:56:50;8.52;;;1.02;;
73515;SDS011;61763;51.416;5.442;2023-05-23T13:59:15;2.92;;;1.17;;
73515;SDS011;61763;51.416;5.442;2023-05-23T14:01:45;7.47;;;1.25;;
73515;SDS011;61763;51.416;5.442;2023-05-23T14:04:10;7.43;;;1.27;;
73515;SDS011;61763;51.416;5.442;2023-05-23T14:06:36;7.93;;;0.93;;
73515;SDS011;61763;51.416;5.442;2023-05-23T14:09:01;5.55;;;0.93;;
73515;SDS011;61763;51.416;5.442;2023-05-23T14:11:26;11.07;;;1.33;;
73515;SDS011;61763;51.416;5.442;2023-05-23T14:13:52;11.50;;;1.38;;
73515;SDS011;61763;51.416;5.442;2023-05-23T14:16:17;10.07;;;1.77;;
73515;SDS011;61763;51.416;5.442;2023-05-23T14:18:43;6.82;;;1.02;;
73515;SDS011;61763;51.416;5.442;2023-05-23T14:21:09;4.40;;;0.77;;
73515;SDS011;61763;51.416;5.442;2023-05-23T14:23:34;11.23;;;0.98;;
73515;SDS011;61763;51.416;5.442;2023-05-23T14:26:00;7.85;;;1.52;;
73515;SDS011;61763;51.416;5.442;2023-05-23T14:28:25;8.60;;;1.08;;
73515;SDS011;61763;51.416;5.442;2023-05-23T14:30:51;9.98;;;1.30;;
73515;SDS011;61763;51.416;5.442;2023-05-23T14:33:17;5.15;;;0.73;;
73515;SDS011;61763;51.416;5.442;2023-05-23T14:35:42;5.72;;;1.13;;
73515;SDS011;61763;51.416;5.442;2023-05-23T14:38:07;9.30;;;1.00;;
73515;SDS011;61763;51.416;5.442;2023-05-23T14:40:33;8.45;;;1.15;;
73515;SDS011;61763;51.416;5.442;2023-05-23T14:42:58;7.85;;;0.70;;
73515;SDS011;61763;51.416;5.442;2023-05-23T14:45:24;7.43;;;0.77;;
73515;SDS011;61763;51.416;5.442;2023-05-23T14:47:49;5.60;;;0.70;;
73515;SDS011;61763;51.416;5.442;2023-05-23T14:50:15;5.63;;;1.02;;
73515;SDS011;61763;51.416;5.442;2023-05-23T14:52:40;8.50;;;1.13;;
73515;SDS011;61763;51.416;5.442;2023-05-23T14:55:06;7.38;;;1.42;;
73515;SDS011;61763;51.416;5.442;2023-05-23T14:57:32;8.43;;;1.23;;
73515;SDS011;61763;51.416;5.442;2023-05-23T14:59:57;6.38;;;0.80;;
73515;SDS011;61763;51.416;5.442;2023-05-23T15:02:23;12.25;;;1.42;;
73515;SDS011;61763;51.416;5.442;2023-05-23T15:04:48;5.90;;;0.95;;
73515;SDS011;61763;51.416;5.442;2023-05-23T15:07:14;9.07;;;1.02;;
73515;SDS011;61763;51.416;5.442;2023-05-23T15:09:42;6.80;;;0.90;;
73515;SDS011;61763;51.416;5.442;2023-05-23T15:12:09;5.95;;;1.17;;
73515;SDS011;61763;51.416;5.442;2023-05-23T15:14:34;5.93;;;1.35;;